createdAt,value
2022-09-12T00:01:07.957Z,97211.09
2022-09-12T00:03:36.384Z,97212.22
2022-09-12T00:06:09.428Z,97206.94
2022-09-12T00:08:37.500Z,97204.84
2022-09-12T00:11:09.107Z,97207.09
2022-09-12T00:13:41.345Z,97212.72
2022-09-12T00:16:16.387Z,97207.00
2022-09-12T00:18:46.896Z,97214.59
2022-09-12T00:21:15.709Z,97205.19
2022-09-12T00:23:43.693Z,97200.72
2022-09-12T00:26:13.759Z,97204.66
2022-09-12T00:28:42.739Z,97196.69
2022-09-12T00:31:13.208Z,97195.38
2022-09-12T00:33:41.846Z,97190.75
2022-09-12T00:36:11.735Z,97202.34
2022-09-12T00:38:42.024Z,97191.19
2022-09-12T00:41:16.920Z,97191.66
2022-09-12T00:43:47.369Z,97192.78
2022-09-12T00:46:24.972Z,97187.19
2022-09-12T00:48:58.223Z,97185.31
2022-09-12T00:51:26.400Z,97187.81
2022-09-12T00:53:55.070Z,97191.50
2022-09-12T00:56:25.060Z,97188.22
2022-09-12T00:58:57.245Z,97182.81
2022-09-12T01:01:29.241Z,97176.34
2022-09-12T01:03:59.912Z,97174.22
2022-09-12T01:06:29.351Z,97178.44
2022-09-12T01:08:59.241Z,97181.78
2022-09-12T01:11:29.583Z,97183.66
2022-09-12T01:13:57.854Z,97171.91
2022-09-12T01:16:25.919Z,97169.81
2022-09-12T01:19:02.836Z,97174.91
2022-09-12T01:21:38.362Z,97172.13
2022-09-12T01:24:31.695Z,97175.94
2022-09-12T01:27:21.537Z,97157.97
2022-09-12T01:30:04.611Z,97156.69
2022-09-12T01:32:44.019Z,97162.22
2022-09-12T01:35:17.552Z,97167.59
2022-09-12T01:37:51.578Z,97153.63
2022-09-12T01:40:23.994Z,97159.00
2022-09-12T01:42:56.535Z,97154.13
2022-09-12T01:45:29.211Z,97160.41
2022-09-12T01:48:02.385Z,97164.63
2022-09-12T01:50:33.520Z,97162.41
2022-09-12T01:53:03.608Z,97161.94
2022-09-12T01:55:35.179Z,97159.03
2022-09-12T01:58:06.587Z,97162.06
2022-09-12T02:00:36.744Z,97149.69
2022-09-12T02:03:10.400Z,97151.88
2022-09-12T02:05:40.983Z,97147.47
2022-09-12T02:08:11.495Z,97145.19
2022-09-12T02:10:43.442Z,97155.47
2022-09-12T02:13:13.758Z,97153.25
2022-09-12T02:15:44.530Z,97139.31
2022-09-12T02:18:15.928Z,97152.91
2022-09-12T02:20:48.564Z,97145.13
2022-09-12T02:23:18.686Z,97140.31
2022-09-12T02:25:47.983Z,97137.75
2022-09-12T02:28:18.370Z,97137.84
2022-09-12T02:30:51.960Z,97133.56
2022-09-12T02:33:26.732Z,97134.34
2022-09-12T02:35:59.784Z,97122.41
2022-09-12T02:38:29.382Z,97120.59
2022-09-12T02:40:57.567Z,97119.34
2022-09-12T02:43:25.873Z,97114.81
2022-09-12T02:45:54.404Z,97114.53
2022-09-12T02:48:27.819Z,97119.63
2022-09-12T02:50:56.126Z,97112.34
2022-09-12T02:53:24.696Z,97116.81
2022-09-12T02:55:52.804Z,97116.03
2022-09-12T02:58:23.748Z,97115.22
2022-09-12T03:00:57.532Z,97114.25
2022-09-12T03:03:48.159Z,97101.06
2022-09-12T03:06:19.851Z,97111.25
2022-09-12T03:09:10.012Z,97106.06
2022-09-12T03:11:58.299Z,97119.03
2022-09-12T03:14:49.844Z,97112.56
2022-09-12T03:17:26.174Z,97115.84
2022-09-12T03:19:58.776Z,97114.06
2022-09-12T03:22:30.585Z,97111.16
2022-09-12T03:25:05.482Z,97103.50
2022-09-12T03:27:36.451Z,97115.03
2022-09-12T03:30:05.582Z,97113.16
2022-09-12T03:32:47.014Z,97115.56
2022-09-12T03:35:22.268Z,97115.03
2022-09-12T03:37:52.047Z,97117.84
2022-09-12T03:40:20.339Z,97103.28
2022-09-12T03:42:48.617Z,97110.34
2022-09-12T03:45:16.814Z,97113.84
2022-09-12T03:47:44.818Z,97111.66
2022-09-12T03:50:12.866Z,97107.66
2022-09-12T03:52:42.255Z,97107.44
2022-09-12T03:55:11.014Z,97107.88
2022-09-12T03:57:39.144Z,97110.63
2022-09-12T04:00:08.738Z,97111.66
2022-09-12T04:02:43.433Z,97113.44
2022-09-12T04:05:11.569Z,97113.44
2022-09-12T04:07:39.737Z,97106.44
2022-09-12T04:10:10.054Z,97110.84
2022-09-12T04:12:39.525Z,97116.81
2022-09-12T04:15:08.844Z,97107.63
2022-09-12T04:17:36.883Z,97110.25
2022-09-12T04:20:05.499Z,97109.25
2022-09-12T04:22:33.759Z,97101.69
2022-09-12T04:25:02.011Z,97108.16
2022-09-12T04:27:31.488Z,97106.66
2022-09-12T04:30:00.334Z,97110.44
2022-09-12T04:32:28.341Z,97108.81
2022-09-12T04:34:56.418Z,97098.69
2022-09-12T04:37:24.579Z,97119.59
2022-09-12T04:39:56.057Z,97114.44
2022-09-12T04:42:24.319Z,97111.41
2022-09-12T04:44:53.735Z,97107.41
2022-09-12T04:47:21.765Z,97106.84
2022-09-12T04:49:51.143Z,97100.84
2022-09-12T04:52:19.219Z,97092.88
2022-09-12T04:54:47.209Z,97100.44
2022-09-12T04:57:15.332Z,97101.44
2022-09-12T04:59:43.587Z,97103.75
2022-09-12T05:02:13.000Z,97110.09
2022-09-12T05:04:41.017Z,97099.34
2022-09-12T05:07:09.153Z,97109.63
2022-09-12T05:09:37.186Z,97107.41
2022-09-12T05:12:06.098Z,97107.00
2022-09-12T05:14:34.856Z,97118.88
2022-09-12T05:17:03.462Z,97122.16
2022-09-12T05:19:33.247Z,97115.16
2022-09-12T05:22:01.636Z,97122.25
2022-09-12T05:24:29.652Z,97121.44
2022-09-12T05:26:57.824Z,97125.13
2022-09-12T05:29:26.323Z,97127.03
2022-09-12T05:31:54.572Z,97128.13
2022-09-12T05:34:23.345Z,97123.31
2022-09-12T05:36:52.789Z,97137.78
2022-09-12T05:39:20.854Z,97143.09
2022-09-12T05:41:49.052Z,97135.31
2022-09-12T05:44:17.907Z,97138.56
2022-09-12T05:46:48.579Z,97144.75
2022-09-12T05:49:16.806Z,97138.50
2022-09-12T05:51:46.724Z,97144.66
2022-09-12T05:54:19.517Z,97146.25
2022-09-12T05:56:48.405Z,97143.47
2022-09-12T05:59:18.015Z,97153.66
2022-09-12T06:01:46.545Z,97153.94
2022-09-12T06:04:14.819Z,97155.25
2022-09-12T06:06:45.189Z,97152.47
2022-09-12T06:09:14.205Z,97154.88
2022-09-12T06:11:44.187Z,97154.28
2022-09-12T06:14:13.827Z,97149.13
2022-09-12T06:16:42.098Z,97145.31
2022-09-12T06:19:15.560Z,97149.13
2022-09-12T06:21:43.798Z,97144.91
2022-09-12T06:24:12.245Z,97149.44
2022-09-12T06:26:40.288Z,97147.91
2022-09-12T06:29:11.830Z,97146.53
2022-09-12T06:31:41.757Z,97147.53
2022-09-12T06:34:11.244Z,97148.53
2022-09-12T06:36:40.542Z,97147.69
2022-09-12T06:39:11.159Z,97150.25
2022-09-12T06:41:43.665Z,97146.16
2022-09-12T06:44:16.078Z,97142.88
2022-09-12T06:46:44.553Z,97144.97
2022-09-12T06:49:13.108Z,97141.00
2022-09-12T06:51:42.100Z,97142.19
2022-09-12T06:54:10.724Z,97146.66
2022-09-12T06:56:38.935Z,97153.25
2022-09-12T06:59:06.947Z,97139.34
2022-09-12T07:01:36.414Z,97137.34
2022-09-12T07:04:05.411Z,97144.03
2022-09-12T07:06:38.008Z,97137.34
2022-09-12T07:09:07.503Z,97152.81
2022-09-12T07:11:37.067Z,97149.53
2022-09-12T07:14:06.407Z,97158.59
2022-09-12T07:16:37.449Z,97157.09
2022-09-12T07:19:07.700Z,97151.88
2022-09-12T07:21:39.768Z,97147.97
2022-09-12T07:24:09.860Z,97141.25
2022-09-12T07:26:38.009Z,97149.06
2022-09-12T07:29:34.846Z,97146.75
2022-09-12T07:31:55.740Z,97146.34
2022-09-12T07:34:23.781Z,97145.13
2022-09-12T07:36:51.869Z,97151.69
2022-09-12T07:39:20.118Z,97146.88
2022-09-12T07:41:48.232Z,97152.06
2022-09-12T07:44:16.255Z,97145.13
2022-09-12T07:46:44.326Z,97155.34
2022-09-12T07:49:14.400Z,97144.31
2022-09-12T07:51:42.474Z,97150.81
2022-09-12T07:54:10.893Z,97146.25
2022-09-12T07:56:39.738Z,97142.28
2022-09-12T07:59:08.167Z,97141.84
2022-09-12T08:01:36.447Z,97142.53
2022-09-12T08:04:05.155Z,97138.63
2022-09-12T08:06:36.165Z,97141.53
2022-09-12T08:09:07.828Z,97143.94
2022-09-12T08:11:36.283Z,97153.81
2022-09-12T08:14:05.772Z,97154.94
2022-09-12T08:16:34.775Z,97147.97
2022-09-12T08:19:03.393Z,97151.97
2022-09-12T08:21:32.850Z,97157.38
2022-09-12T08:24:03.746Z,97152.66
2022-09-12T08:26:34.724Z,97150.91
2022-09-12T08:29:04.203Z,97147.56
2022-09-12T08:31:36.461Z,97143.28
2022-09-12T08:34:05.698Z,97140.59
2022-09-12T08:36:34.139Z,97139.31
2022-09-12T08:39:06.037Z,97147.41
2022-09-12T08:41:35.984Z,97144.09
2022-09-12T08:44:24.248Z,97140.25
2022-09-12T08:47:01.671Z,97150.59
2022-09-12T08:49:31.285Z,97144.66
2022-09-12T08:52:01.679Z,97146.41
2022-09-12T08:54:32.417Z,97144.97
2022-09-12T08:57:04.151Z,97147.78
2022-09-12T08:59:36.064Z,97148.22
2022-09-12T09:02:05.332Z,97151.34
2022-09-12T09:04:39.068Z,97154.06
2022-09-12T09:07:28.035Z,97150.84
2022-09-12T09:10:10.208Z,97147.09
2022-09-12T09:12:42.533Z,97140.41
2022-09-12T09:15:24.782Z,97143.44
2022-09-12T09:17:54.971Z,97143.41
2022-09-12T09:20:29.940Z,97145.13
2022-09-12T09:23:01.783Z,97140.81
2022-09-12T09:25:41.220Z,97137.69
2022-09-12T09:28:14.198Z,97138.06
2022-09-12T09:30:44.503Z,97139.66
2022-09-12T09:33:22.459Z,97143.31
2022-09-12T09:35:58.144Z,97139.44
2022-09-12T09:38:32.019Z,97136.84
2022-09-12T09:41:12.317Z,97136.00
2022-09-12T09:43:40.628Z,97133.09
2022-09-12T09:46:08.971Z,97140.38
2022-09-12T09:48:38.435Z,97119.56
2022-09-12T09:51:09.316Z,97129.75
2022-09-12T09:53:41.746Z,97120.09
2022-09-12T09:56:14.875Z,97121.66
2022-09-12T09:58:43.644Z,97125.19
2022-09-12T10:01:17.079Z,97127.38
2022-09-12T10:03:52.308Z,97126.47
2022-09-12T10:06:32.284Z,97123.31
2022-09-12T10:09:11.254Z,97114.03
2022-09-12T10:11:45.110Z,97115.66
2022-09-12T10:14:38.516Z,97120.69
2022-09-12T10:17:33.167Z,97119.56
2022-09-12T10:20:21.626Z,97110.41
2022-09-12T10:22:50.315Z,97120.03
2022-09-12T10:25:20.195Z,97108.81
2022-09-12T10:27:55.218Z,97114.59
2022-09-12T10:30:25.090Z,97110.97
2022-09-12T10:32:54.101Z,97106.22
2022-09-12T10:35:24.494Z,97104.41
2022-09-12T10:37:55.496Z,97099.28
2022-09-12T10:40:25.569Z,97097.25
2022-09-12T10:42:56.054Z,97095.72
2022-09-12T10:45:29.382Z,97094.13
2022-09-12T10:48:02.105Z,97087.88
2022-09-12T10:50:34.492Z,97090.41
2022-09-12T10:53:16.123Z,97090.41
2022-09-12T10:56:02.949Z,97086.91
2022-09-12T10:58:40.979Z,97077.47
2022-09-12T11:01:14.341Z,97081.63
2022-09-12T11:03:55.786Z,97075.53
2022-09-12T11:06:29.788Z,97083.34
2022-09-12T11:09:06.446Z,97072.13
2022-09-12T11:11:43.285Z,97079.97
2022-09-12T11:14:34.008Z,97078.00
2022-09-12T11:17:13.414Z,97075.97
2022-09-12T11:20:01.313Z,97072.47
2022-09-12T11:22:37.989Z,97073.38
2022-09-12T11:25:20.144Z,97065.94
2022-09-12T11:28:04.547Z,97070.78
2022-09-12T11:30:39.195Z,97066.56
2022-09-12T11:33:25.484Z,97065.09
2022-09-12T11:35:57.289Z,97068.06
2022-09-12T11:38:43.116Z,97071.97
2022-09-12T11:41:14.302Z,97064.34
2022-09-12T11:43:46.167Z,97064.09
2022-09-12T11:46:19.956Z,97061.09
2022-09-12T11:48:52.789Z,97061.53
2022-09-12T11:51:22.470Z,97062.97
2022-09-12T11:54:01.002Z,97066.34
2022-09-12T11:56:29.069Z,97068.94
2022-09-12T11:59:01.098Z,97062.88
2022-09-12T12:01:56.377Z,97064.22
2022-09-12T12:04:29.066Z,97063.50
2022-09-12T12:07:03.603Z,97057.16
2022-09-12T12:09:33.163Z,97058.50
2022-09-12T12:12:04.711Z,97065.91
2022-09-12T12:14:39.119Z,97053.78
2022-09-12T12:17:16.748Z,97058.41
2022-09-12T12:19:46.512Z,97058.56
2022-09-12T12:22:18.594Z,97049.59
2022-09-12T12:24:56.961Z,97042.91
2022-09-12T12:27:27.118Z,97042.81
2022-09-12T12:29:55.395Z,97034.13
2022-09-12T12:32:26.770Z,97036.56
2022-09-12T12:35:37.005Z,97027.69
2022-09-12T12:38:05.599Z,97030.66
2022-09-12T12:40:33.709Z,97028.16
2022-09-12T12:43:08.042Z,97032.66
2022-09-12T12:46:02.798Z,97031.19
2022-09-12T12:48:35.538Z,97026.88
2022-09-12T12:51:18.459Z,97029.31
2022-09-12T12:53:46.642Z,97021.78
2022-09-12T12:56:29.244Z,97027.59
2022-09-12T12:59:01.194Z,97015.88
2022-09-12T13:01:29.882Z,97012.28
2022-09-12T13:04:01.535Z,97013.06
2022-09-12T13:06:33.267Z,97001.34
2022-09-12T13:09:03.171Z,97007.31
2022-09-12T13:11:34.684Z,97002.19
2022-09-12T13:14:04.812Z,96998.78
2022-09-12T13:16:35.327Z,96994.34
2022-09-12T13:19:07.036Z,96988.19
2022-09-12T13:21:35.154Z,96985.09
2022-09-12T13:24:05.320Z,96974.03
2022-09-12T13:26:41.762Z,96973.47
2022-09-12T13:29:11.135Z,96984.25
2022-09-12T13:31:39.182Z,96982.56
2022-09-12T13:34:10.652Z,96986.22
2022-09-12T13:36:46.432Z,96979.81
2022-09-12T13:39:18.684Z,96972.16
2022-09-12T13:42:21.919Z,96974.69
2022-09-12T13:44:52.171Z,96963.09
2022-09-12T13:47:26.453Z,96964.56
2022-09-12T13:49:56.113Z,96954.47
2022-09-12T13:52:26.891Z,96962.28
2022-09-12T13:54:58.197Z,96953.78
2022-09-12T13:57:31.809Z,96957.63
2022-09-12T14:00:02.109Z,96954.56
2022-09-12T14:02:36.764Z,96949.09
2022-09-12T14:05:19.814Z,96945.75
2022-09-12T14:07:56.194Z,96942.25
2022-09-12T14:10:33.102Z,96943.06
2022-09-12T14:13:02.757Z,96949.84
2022-09-12T14:15:33.457Z,96952.75
2022-09-12T14:18:03.245Z,96952.50
2022-09-12T14:20:37.010Z,96949.63
2022-09-12T14:23:08.481Z,96943.50
2022-09-12T14:25:39.070Z,96939.75
2022-09-12T14:28:07.196Z,96929.53
2022-09-12T14:30:37.284Z,96938.72
2022-09-12T14:33:14.232Z,96928.53
2022-09-12T14:35:44.842Z,96929.50
2022-09-12T14:38:20.478Z,96934.19
2022-09-12T14:40:50.432Z,96929.00
2022-09-12T14:43:21.691Z,96919.63
2022-09-12T14:45:56.999Z,96920.66
2022-09-12T14:48:25.435Z,96920.50
2022-09-12T14:50:55.245Z,96920.56
2022-09-12T14:53:26.311Z,96915.25
2022-09-12T14:55:59.294Z,96914.56
2022-09-12T14:58:28.488Z,96914.44
2022-09-12T15:00:59.191Z,96912.94
2022-09-12T15:03:30.516Z,96914.19
2022-09-12T15:06:00.900Z,96910.34
2022-09-12T15:08:29.012Z,96911.53
2022-09-12T15:10:57.949Z,96914.00
2022-09-12T15:13:27.002Z,96901.53
2022-09-12T15:15:56.538Z,96902.28
2022-09-12T15:18:26.285Z,96909.81
2022-09-12T15:20:57.033Z,96902.38
2022-09-12T15:23:32.938Z,96907.19
2022-09-12T15:26:01.365Z,96911.84
2022-09-12T15:28:31.694Z,96907.44
2022-09-12T15:31:05.851Z,96910.22
2022-09-12T15:33:34.006Z,96907.00
2022-09-12T15:36:02.250Z,96904.34
2022-09-12T15:38:31.986Z,96901.47
2022-09-12T15:41:00.223Z,96891.31
2022-09-12T15:43:28.368Z,96891.25
2022-09-12T15:45:59.325Z,96893.59
2022-09-12T15:48:27.389Z,96892.75
2022-09-12T15:50:57.684Z,96883.72
2022-09-12T15:53:25.663Z,96898.16
2022-09-12T15:55:55.003Z,96886.28
2022-09-12T15:58:24.610Z,96894.06
2022-09-12T16:00:52.611Z,96892.91
2022-09-12T16:03:23.767Z,96892.88
2022-09-12T16:05:52.257Z,96886.94
2022-09-12T16:08:20.265Z,96893.94
2022-09-12T16:10:49.060Z,96895.88
2022-09-12T16:13:18.812Z,96889.84
2022-09-12T16:15:46.999Z,96885.84
2022-09-12T16:18:15.681Z,96888.00
2022-09-12T16:20:43.774Z,96883.91
2022-09-12T16:23:12.802Z,96882.38
2022-09-12T16:25:41.051Z,96883.19
2022-09-12T16:28:09.652Z,96883.22
2022-09-12T16:30:39.046Z,96870.59
2022-09-12T16:33:07.277Z,96875.97
2022-09-12T16:35:35.220Z,96870.88
2022-09-12T16:38:03.259Z,96867.22
2022-09-12T16:40:31.703Z,96863.53
2022-09-12T16:42:59.722Z,96862.53
2022-09-12T16:45:27.696Z,96864.88
2022-09-12T16:47:57.215Z,96858.31
2022-09-12T16:50:25.275Z,96859.81
2022-09-12T16:52:53.655Z,96852.97
2022-09-12T16:55:22.325Z,96839.72
2022-09-12T16:57:50.666Z,96850.50
2022-09-12T17:00:18.913Z,96847.91
2022-09-12T17:02:47.395Z,96845.63
2022-09-12T17:05:16.984Z,96848.78
2022-09-12T17:07:44.980Z,96840.22
2022-09-12T17:10:13.017Z,96844.84
2022-09-12T17:12:41.106Z,96847.81
2022-09-12T17:15:09.902Z,96852.03
2022-09-12T17:17:38.115Z,96851.00
2022-09-12T17:20:06.783Z,96851.03
2022-09-12T17:22:36.115Z,96853.78
2022-09-12T17:25:06.837Z,96860.69
2022-09-12T17:27:34.861Z,96862.59
2022-09-12T17:30:02.924Z,96871.63
2022-09-12T17:32:32.420Z,96867.25
2022-09-12T17:35:00.532Z,96866.06
2022-09-12T17:37:28.589Z,96862.91
2022-09-12T17:39:57.978Z,96867.13
2022-09-12T17:42:26.044Z,96867.09
2022-09-12T17:44:54.969Z,96869.31
2022-09-12T17:47:22.990Z,96867.97
2022-09-12T17:49:50.976Z,96872.16
2022-09-12T17:52:19.060Z,96866.97
2022-09-12T17:54:47.103Z,96869.31
2022-09-12T17:57:16.504Z,96873.88
2022-09-12T17:59:44.537Z,96865.19
2022-09-12T18:02:16.080Z,96875.59
2022-09-12T18:04:46.311Z,96873.16
2022-09-12T18:07:14.624Z,96869.88
2022-09-12T18:09:43.804Z,96865.44
2022-09-12T18:12:12.895Z,96862.19
2022-09-12T18:14:43.553Z,96865.56
2022-09-12T18:17:11.673Z,96868.88
2022-09-12T18:19:39.768Z,96866.34
2022-09-12T18:22:07.800Z,96866.56
2022-09-12T18:24:35.884Z,96863.22
2022-09-12T18:27:05.169Z,96865.88
2022-09-12T18:29:33.300Z,96872.00
2022-09-12T18:32:03.851Z,96864.91
2022-09-12T18:34:31.887Z,96866.31
2022-09-12T18:37:01.954Z,96867.75
2022-09-12T18:39:31.072Z,96866.44
2022-09-12T18:42:00.406Z,96868.63
2022-09-12T18:44:28.534Z,96868.56
2022-09-12T18:46:57.109Z,96875.84
2022-09-12T18:49:26.957Z,96873.41
2022-09-12T18:51:57.230Z,96869.81
2022-09-12T18:54:25.236Z,96870.88
2022-09-12T18:56:53.255Z,96864.91
2022-09-12T18:59:21.347Z,96868.66
2022-09-12T19:01:50.292Z,96868.59
2022-09-12T19:04:18.827Z,96872.59
2022-09-12T19:06:50.436Z,96861.44
2022-09-12T19:09:20.641Z,96862.81
2022-09-12T19:11:50.064Z,96864.22
2022-09-12T19:14:19.616Z,96868.78
2022-09-12T19:16:48.737Z,96869.47
2022-09-12T19:19:16.786Z,96866.31
2022-09-12T19:21:45.146Z,96863.50
2022-09-12T19:24:16.226Z,96864.53
2022-09-12T19:26:45.264Z,96869.09
2022-09-12T19:29:14.381Z,96865.06
2022-09-12T19:31:42.430Z,96860.22
2022-09-12T19:34:11.604Z,96868.28
2022-09-12T19:36:45.525Z,96868.97
2022-09-12T19:39:17.245Z,96877.84
2022-09-12T19:41:45.956Z,96875.78
2022-09-12T19:44:39.473Z,96866.75
2022-09-12T19:47:07.873Z,96864.28
2022-09-12T19:49:35.911Z,96868.81
2022-09-12T19:52:03.966Z,96865.22
2022-09-12T19:54:33.340Z,96874.06
2022-09-12T19:57:01.394Z,96871.69
2022-09-12T19:59:29.431Z,96870.00
2022-09-12T20:01:57.647Z,96871.81
2022-09-12T20:04:25.850Z,96880.66
2022-09-12T20:06:53.902Z,96879.75
2022-09-12T20:09:25.003Z,96871.81
2022-09-12T20:11:54.353Z,96870.94
2022-09-12T20:14:22.461Z,96862.69
2022-09-12T20:16:55.174Z,96869.81
2022-09-12T20:19:23.197Z,96873.22
2022-09-12T20:21:51.248Z,96873.44
2022-09-12T20:24:19.240Z,96868.72
2022-09-12T20:26:47.411Z,96865.06
2022-09-12T20:29:16.783Z,96855.25
2022-09-12T20:31:45.046Z,96859.78
2022-09-12T20:34:16.354Z,96855.38
2022-09-12T20:36:44.741Z,96859.78
2022-09-12T20:39:15.014Z,96859.66
2022-09-12T20:41:43.032Z,96850.63
2022-09-12T20:44:11.140Z,96848.16
2022-09-12T20:46:41.028Z,96851.88
2022-09-12T20:49:10.270Z,96854.13
2022-09-12T20:51:38.583Z,96843.97
2022-09-12T20:54:07.876Z,96850.06
2022-09-12T20:56:37.515Z,96844.97
2022-09-12T20:59:05.902Z,96852.22
2022-09-12T21:01:34.434Z,96855.25
2022-09-12T21:04:05.288Z,96848.59
2022-09-12T21:06:33.282Z,96845.44
2022-09-12T21:09:02.312Z,96848.03
2022-09-12T21:11:30.339Z,96843.28
2022-09-12T21:13:58.958Z,96846.88
2022-09-12T21:16:27.112Z,96836.56
2022-09-12T21:18:56.929Z,96839.47
2022-09-12T21:21:26.998Z,96833.47
2022-09-12T21:23:58.848Z,96841.50
2022-09-12T21:26:27.188Z,96838.31
2022-09-12T21:28:55.247Z,96829.75
2022-09-12T21:31:23.445Z,96832.00
2022-09-12T21:33:52.919Z,96839.66
2022-09-12T21:36:20.917Z,96838.44
2022-09-12T21:38:50.703Z,96838.75
2022-09-12T21:41:19.135Z,96841.69
2022-09-12T21:43:47.218Z,96834.69
2022-09-12T21:46:15.285Z,96833.09
2022-09-12T21:48:44.123Z,96833.09
2022-09-12T21:51:12.151Z,96840.09
2022-09-12T21:53:40.486Z,96839.63
2022-09-12T21:56:10.782Z,96833.31
2022-09-12T21:58:39.318Z,96830.13
2022-09-12T22:01:09.461Z,96837.34
2022-09-12T22:03:37.643Z,96833.28
2022-09-12T22:06:06.867Z,96840.81
2022-09-12T22:08:38.768Z,96847.00
2022-09-12T22:11:10.907Z,96845.59
2022-09-12T22:13:39.720Z,96848.38
2022-09-12T22:16:08.439Z,96851.56
2022-09-12T22:18:37.043Z,96852.34
2022-09-12T22:21:06.980Z,96844.09
2022-09-12T22:23:52.931Z,96850.50
2022-09-12T22:26:22.318Z,96848.66
2022-09-12T22:28:50.726Z,96853.00
2022-09-12T22:31:19.160Z,96853.66
2022-09-12T22:33:47.164Z,96855.09
2022-09-12T22:36:15.675Z,96851.28
2022-09-12T22:38:43.756Z,96849.56
2022-09-12T22:41:13.148Z,96843.19
2022-09-12T22:43:42.684Z,96835.16
2022-09-12T22:46:13.237Z,96834.72
2022-09-12T22:48:41.766Z,96834.59
2022-09-12T22:51:09.928Z,96817.28
2022-09-12T22:53:38.480Z,96821.78
2022-09-12T22:56:07.380Z,96814.66
2022-09-12T22:58:37.373Z,96819.13
2022-09-12T23:01:07.714Z,96806.72
2022-09-12T23:03:36.476Z,96812.47
2022-09-12T23:06:05.122Z,96801.31
2022-09-12T23:08:34.643Z,96804.47
2022-09-12T23:11:03.266Z,96805.44
2022-09-12T23:13:31.336Z,96803.16
2022-09-12T23:16:00.123Z,96810.16
2022-09-12T23:18:29.635Z,96812.88
2022-09-12T23:20:59.306Z,96810.16
2022-09-12T23:23:27.354Z,96815.56
2022-09-12T23:26:17.240Z,96813.06
2022-09-12T23:28:49.658Z,96815.00
2022-09-12T23:31:18.634Z,96800.25
2022-09-12T23:33:49.544Z,96801.56
2022-09-12T23:36:17.773Z,96796.00
2022-09-12T23:38:46.648Z,96795.06
2022-09-12T23:41:15.847Z,96792.06
2022-09-12T23:43:45.307Z,96790.66
2022-09-12T23:46:14.260Z,96783.69
2022-09-12T23:48:42.767Z,96787.50
2022-09-12T23:51:12.779Z,96788.16
2022-09-12T23:53:41.191Z,96798.66
2022-09-12T23:56:09.421Z,96793.44
2022-09-12T23:58:37.521Z,96791.38
